Time;durP1;ratioP1;P1;durP2;ratioP2;P2;SDS_P1;SDS_P2;PMS_P1;PMS_P2;Temp;Humidity;BMP_temperature;BMP_pressure;BME280_temperature;BME280_humidity;BME280_pressure;Samples;Min_cycle;Max_cycle;Signal;HPM_P1;HPM_P2
2023/01/03 00:00:47;;;;;;;12.40;7.38;;;10.20;99.90;;;;;;5053161;28;20036;-74
2023/01/03 00:03:16;;;;;;;13.07;6.85;;;10.20;99.90;;;;;;5053384;28;20025;-74
2023/01/03 00:05:43;;;;;;;10.93;6.72;;;10.20;99.90;;;;;;5053201;28;20025;-74
2023/01/03 00:08:09;;;;;;;8.93;5.75;;;10.30;99.90;;;;;;5051734;28;20052;-74
2023/01/03 00:10:35;;;;;;;9.23;6.43;;;10.30;99.90;;;;;;5053131;28;20056;-74
2023/01/03 00:13:01;;;;;;;8.98;5.88;;;10.20;99.90;;;;;;5053168;28;20504;-74
2023/01/03 00:15:26;;;;;;;9.90;5.70;;;10.20;99.90;;;;;;5039757;28;20070;-74
2023/01/03 00:17:54;;;;;;;8.38;5.95;;;10.20;99.90;;;;;;5053223;28;20513;-74
2023/01/03 00:20:20;;;;;;;9.45;6.22;;;10.10;99.90;;;;;;5052084;28;20498;-74
2023/01/03 00:22:46;;;;;;;8.02;5.28;;;10.10;99.90;;;;;;5051010;28;20116;-74
2023/01/03 00:25:11;;;;;;;7.68;5.50;;;10.10;99.90;;;;;;5050846;28;20175;-74
2023/01/03 00:27:37;;;;;;;7.88;4.82;;;10.00;99.90;;;;;;5039100;28;20491;-74
2023/01/03 00:30:04;;;;;;;6.65;4.53;;;10.00;99.90;;;;;;5046890;28;20523;-74
2023/01/03 00:32:29;;;;;;;6.88;4.63;;;10.00;99.90;;;;;;5044685;28;20036;-74
2023/01/03 00:34:55;;;;;;;8.65;4.30;;;10.00;99.90;;;;;;5047498;28;20396;-74
2023/01/03 00:37:21;;;;;;;5.78;4.63;;;10.00;99.90;;;;;;5044698;28;20031;-74
2023/01/03 00:39:46;;;;;;;6.07;4.78;;;10.10;99.90;;;;;;5046641;28;20025;-74
2023/01/03 00:42:12;;;;;;;7.07;4.30;;;10.10;99.90;;;;;;5050200;28;20017;-74
2023/01/03 00:44:38;;;;;;;6.32;4.07;;;10.10;99.90;;;;;;5052626;28;20547;-74
2023/01/03 00:47:03;;;;;;;6.15;3.53;;;10.10;99.90;;;;;;5047514;28;20156;-74
2023/01/03 00:49:29;;;;;;;5.95;4.13;;;10.00;99.90;;;;;;5050923;28;20033;-73
2023/01/03 00:51:55;;;;;;;5.53;3.78;;;9.90;99.90;;;;;;5052654;28;20055;-74
2023/01/03 00:54:22;;;;;;;6.55;4.20;;;9.90;99.90;;;;;;5033005;28;20061;-74
2023/01/03 00:56:49;;;;;;;4.97;3.78;;;9.90;99.90;;;;;;5044765;28;20052;-74
2023/01/03 00:59:16;;;;;;;5.18;3.72;;;9.80;99.90;;;;;;5050808;28;20021;-74
2023/01/03 01:01:54;;;;;;;5.43;3.55;;;9.80;99.90;;;;;;5039182;28;20378;-74
2023/01/03 01:04:26;;;;;;;6.05;3.90;;;9.80;99.90;;;;;;5039447;28;20025;-74
2023/01/03 01:06:58;;;;;;;6.18;4.05;;;9.80;99.90;;;;;;5051644;28;20066;-74
2023/01/03 01:09:33;;;;;;;6.55;3.78;;;9.90;99.90;;;;;;5051886;28;20025;-74
2023/01/03 01:11:59;;;;;;;5.75;3.53;;;9.80;99.90;;;;;;5051825;28;20021;-74
2023/01/03 01:14:28;;;;;;;5.70;4.15;;;9.90;99.90;;;;;;5051995;28;20031;-74
2023/01/03 01:16:59;;;;;;;7.05;4.15;;;9.80;99.90;;;;;;5050564;28;20024;-74
2023/01/03 01:19:31;;;;;;;5.18;3.65;;;9.80;99.90;;;;;;5051886;28;20062;-74
2023/01/03 01:21:58;;;;;;;5.15;4.13;;;9.80;99.90;;;;;;5046764;28;20022;-74
2023/01/03 01:24:24;;;;;;;6.07;3.83;;;9.80;99.90;;;;;;5044791;28;20033;-74
2023/01/03 01:26:50;;;;;;;4.40;3.65;;;9.60;99.90;;;;;;5031454;28;20034;-74
2023/01/03 01:29:17;;;;;;;4.78;3.70;;;9.70;99.90;;;;;;5044642;28;20057;-74
2023/01/03 01:31:44;;;;;;;4.97;3.85;;;9.70;99.90;;;;;;5038103;28;20104;-74
2023/01/03 01:34:11;;;;;;;4.70;3.90;;;9.70;99.90;;;;;;5051164;28;20139;-74
2023/01/03 01:36:40;;;;;;;5.43;3.30;;;9.80;99.90;;;;;;5038260;28;20108;-74
2023/01/03 01:39:10;;;;;;;4.97;3.92;;;9.80;99.90;;;;;;5050233;28;20032;-74
2023/01/03 01:44:51;;;;;;;4.93;3.63;;;9.90;99.90;;;;;;5051264;28;20215;-74
2023/01/03 01:47:28;;;;;;;5.40;3.80;;;9.80;99.90;;;;;;5051047;28;20028;-74
2023/01/03 01:49:59;;;;;;;6.22;4.60;;;9.80;99.90;;;;;;5041739;28;20033;-74
2023/01/03 01:52:26;;;;;;;6.72;4.63;;;9.90;99.90;;;;;;5043246;28;20025;-74
2023/01/03 01:54:54;;;;;;;5.47;4.22;;;9.80;99.90;;;;;;5040932;28;20036;-74
2023/01/03 01:57:23;;;;;;;6.68;4.70;;;9.80;99.90;;;;;;5050742;28;20173;-74
2023/01/03 01:59:49;;;;;;;6.88;4.85;;;9.90;99.90;;;;;;5050477;28;20036;-74
2023/01/03 02:02:20;;;;;;;7.60;5.22;;;9.90;99.90;;;;;;5032546;28;20014;-74
2023/01/03 02:04:48;;;;;;;8.30;5.50;;;9.90;99.90;;;;;;5042742;28;20036;-74
2023/01/03 02:07:15;;;;;;;9.23;5.65;;;9.90;99.90;;;;;;5044976;28;20025;-74
2023/01/03 02:09:41;;;;;;;7.00;5.20;;;9.90;99.90;;;;;;5031030;28;20075;-74
2023/01/03 02:15:36;;;;;;;9.55;5.40;;;9.90;99.90;;;;;;5050750;28;20036;-74
2023/01/03 02:18:20;;;;;;;11.68;5.60;;;9.90;99.90;;;;;;5036478;28;20026;-73
2023/01/03 02:20:48;;;;;;;7.82;5.43;;;9.90;99.90;;;;;;5030581;28;20025;-74
2023/01/03 02:23:25;;;;;;;7.35;5.55;;;9.90;99.90;;;;;;5030373;28;20053;-74
2023/01/03 02:26:25;;;;;;;6.95;5.25;;;9.90;99.90;;;;;;5030522;28;20049;-75
2023/01/03 02:28:56;;;;;;;7.53;5.13;;;9.90;99.90;;;;;;5055714;28;20076;-74
2023/01/03 02:31:24;;;;;;;;;;;9.90;99.90;;;;;;5050175;28;20285;-74
2023/01/03 02:33:52;;;;;;;7.10;4.72;;;9.90;99.90;;;;;;5049274;28;19909;-74
2023/01/03 02:36:37;;;;;;;6.72;5.57;;;9.90;99.90;;;;;;5049195;28;20495;-74
2023/01/03 02:39:22;;;;;;;7.10;4.95;;;9.80;99.90;;;;;;5050562;28;20021;-74
2023/01/03 02:45:01;;;;;;;6.20;4.70;;;9.80;99.90;;;;;;5037989;28;20082;-73
2023/01/03 02:47:29;;;;;;;7.45;4.85;;;9.80;99.90;;;;;;5048215;28;20128;-74
2023/01/03 02:49:57;;;;;;;6.28;4.78;;;9.80;99.90;;;;;;5050085;28;20047;-74
2023/01/03 02:52:27;;;;;;;8.00;5.22;;;9.80;99.90;;;;;;5050770;28;20100;-74
2023/01/03 02:54:58;;;;;;;8.63;5.40;;;9.80;99.90;;;;;;5050871;28;20025;-74
2023/01/03 02:57:30;;;;;;;7.00;5.25;;;9.90;99.90;;;;;;5050259;28;20491;-74
2023/01/03 03:00:01;;;;;;;;;;;9.80;99.90;;;;;;5050410;28;20025;-74
2023/01/03 03:02:31;;;;;;;7.70;5.25;;;9.80;99.90;;;;;;5050124;28;19958;-73
2023/01/03 03:04:59;;;;;;;8.73;5.47;;;9.80;99.90;;;;;;5050528;28;20036;-74
2023/01/03 03:07:30;;;;;;;8.35;5.90;;;9.80;99.90;;;;;;5050489;28;20021;-74
2023/01/03 03:15:34;;;;;;;7.50;5.38;;;9.60;99.90;;;;;;5049288;28;20557;-74
2023/01/03 03:18:05;;;;;;;8.30;4.93;;;9.50;99.90;;;;;;5050285;28;20151;-74
2023/01/03 03:26:11;;;;;;;6.82;4.47;;;9.60;99.90;;;;;;5052918;28;20082;-74
2023/01/03 03:28:42;;;;;;;7.82;4.50;;;9.60;99.90;;;;;;5050588;28;20052;-74
2023/01/03 03:31:13;;;;;;;6.75;4.93;;;9.70;99.90;;;;;;5054077;28;20057;-74
2023/01/03 03:33:56;;;;;;;6.10;4.25;;;9.70;99.90;;;;;;5049253;28;20030;-74
2023/01/03 03:36:54;;;;;;;5.40;3.75;;;9.80;99.90;;;;;;5051638;28;20033;-74
2023/01/03 03:45:24;;;;;;;5.10;3.30;;;9.70;99.90;;;;;;4992199;28;20080;-74
2023/01/03 03:48:12;;;;;;;4.75;3.38;;;9.70;99.90;;;;;;4991839;28;20539;-73
2023/01/03 03:51:01;;;;;;;4.60;3.13;;;9.60;99.90;;;;;;4991880;28;20038;-74
2023/01/03 03:53:32;;;;;;;5.07;3.40;;;9.60;99.90;;;;;;4992076;28;20057;-73
2023/01/03 03:56:14;;;;;;;4.95;3.42;;;9.60;99.90;;;;;;4992161;28;20516;-73
2023/01/03 03:58:42;;;;;;;6.20;3.60;;;9.60;99.90;;;;;;4990462;28;20042;-73
2023/01/03 04:01:14;;;;;;;5.20;3.47;;;9.50;99.90;;;;;;4972308;28;20027;-73
2023/01/03 04:03:42;;;;;;;3.83;2.75;;;9.50;99.90;;;;;;4987537;28;20030;-73
2023/01/03 04:06:33;;;;;;;3.70;2.88;;;9.50;99.90;;;;;;4991329;28;20033;-74
2023/01/03 04:08:59;;;;;;;4.47;3.15;;;9.40;99.90;;;;;;4981185;28;20097;-74
2023/01/03 04:11:25;;;;;;;4.90;3.20;;;9.50;99.90;;;;;;4990969;28;20041;-74
2023/01/03 04:13:50;;;;;;;3.85;3.10;;;9.60;99.90;;;;;;4990842;28;20341;-74
2023/01/03 04:16:16;;;;;;;3.80;2.92;;;9.50;99.90;;;;;;5028194;28;20029;-74
2023/01/03 04:18:42;;;;;;;3.22;2.72;;;9.50;99.90;;;;;;5048443;28;20032;-74
2023/01/03 04:21:07;;;;;;;3.90;2.78;;;9.60;99.90;;;;;;5045456;28;20490;-74
2023/01/03 04:23:33;;;;;;;3.40;2.80;;;9.60;99.90;;;;;;5052621;28;20053;-74
2023/01/03 04:25:59;;;;;;;4.50;2.88;;;9.50;99.90;;;;;;5052275;28;20433;-74
2023/01/03 04:28:24;;;;;;;6.65;2.72;;;9.70;99.90;;;;;;5067823;28;20139;-74
2023/01/03 04:30:50;;;;;;;3.05;2.60;;;9.60;99.90;;;;;;5052668;28;20279;-74
2023/01/03 04:33:15;;;;;;;3.38;2.50;;;9.60;99.90;;;;;;5051820;28;20556;-74
2023/01/03 04:35:41;;;;;;;2.97;2.50;;;9.60;99.90;;;;;;5052587;28;20407;-74
2023/01/03 04:38:08;;;;;;;4.15;2.78;;;9.70;99.90;;;;;;5052213;28;20074;-74
2023/01/03 04:40:35;;;;;;;2.47;2.20;;;9.70;99.90;;;;;;5052330;28;20021;-74
2023/01/03 04:45:47;;;;;;;2.90;2.40;;;9.70;99.90;;;;;;5048396;28;20448;-74
2023/01/03 04:48:13;;;;;;;4.07;2.22;;;9.70;99.90;;;;;;5052357;28;20028;-74
2023/01/03 04:50:39;;;;;;;4.55;2.17;;;9.70;99.90;;;;;;5051784;28;20021;-74
2023/01/03 04:53:05;;;;;;;2.45;1.90;;;9.80;99.90;;;;;;5052244;28;20435;-74
2023/01/03 04:55:30;;;;;;;2.95;1.88;;;9.80;99.90;;;;;;5051831;28;20036;-74
2023/01/03 04:57:56;;;;;;;2.00;1.73;;;9.80;99.90;;;;;;5047426;28;20025;-74
2023/01/03 05:00:22;;;;;;;3.35;1.98;;;9.70;99.90;;;;;;5045856;28;20029;-74
2023/01/03 05:02:47;;;;;;;3.53;2.00;;;9.70;99.90;;;;;;5031868;28;20037;-74
2023/01/03 05:05:13;;;;;;;2.58;2.00;;;9.70;99.90;;;;;;5031987;28;20029;-74
2023/01/03 05:07:39;;;;;;;2.50;1.92;;;9.70;99.90;;;;;;5036006;28;20025;-74
2023/01/03 05:10:05;;;;;;;2.53;2.17;;;9.70;99.90;;;;;;5046760;28;20028;-74
2023/01/03 05:12:31;;;;;;;2.90;1.75;;;9.70;99.90;;;;;;5046881;28;20056;-74
2023/01/03 05:14:56;;;;;;;3.33;2.00;;;9.60;99.90;;;;;;5047360;28;20475;-74
2023/01/03 05:17:22;;;;;;;2.20;1.85;;;9.60;99.90;;;;;;5051657;28;20490;-74
2023/01/03 05:28:01;;;;;;;2.75;1.60;;;9.60;99.90;;;;;;5051284;28;20056;-74
2023/01/03 05:30:27;;;;;;;2.55;2.17;;;9.60;99.90;;;;;;5051595;28;20049;-74
2023/01/03 05:32:53;;;;;;;2.20;1.75;;;9.70;99.90;;;;;;5051135;28;20029;-74
2023/01/03 05:35:19;;;;;;;3.45;2.05;;;9.70;99.90;;;;;;5051459;28;20029;-74
2023/01/03 05:37:44;;;;;;;2.10;1.63;;;9.70;99.90;;;;;;5051315;28;20399;-74
2023/01/03 05:40:10;;;;;;;2.47;1.65;;;9.80;99.90;;;;;;5051781;28;20099;-74
2023/01/03 05:42:36;;;;;;;2.55;1.60;;;9.80;99.90;;;;;;5050817;28;20036;-74
2023/01/03 05:45:02;;;;;;;2.55;2.15;;;9.80;99.90;;;;;;5051320;28;20475;-74
2023/01/03 05:47:28;;;;;;;1.55;1.27;;;9.80;99.90;;;;;;5048938;28;20128;-74
2023/01/03 05:49:53;;;;;;;2.58;1.77;;;9.80;99.90;;;;;;5051209;28;20036;-74
2023/01/03 05:52:19;;;;;;;2.20;1.70;;;9.70;99.90;;;;;;5050967;28;20112;-74
2023/01/03 05:54:45;;;;;;;2.67;1.80;;;9.70;99.90;;;;;;5051273;28;20033;-74
2023/01/03 05:57:11;;;;;;;2.08;1.55;;;9.70;99.90;;;;;;5050644;28;20021;-74
2023/01/03 05:59:36;;;;;;;2.80;1.60;;;9.70;99.90;;;;;;5050621;28;20034;-74
2023/01/03 06:02:02;;;;;;;2.78;1.98;;;9.80;99.90;;;;;;5036211;28;20021;-74
2023/01/03 06:04:28;;;;;;;2.47;2.03;;;9.80;99.90;;;;;;5050659;28;20107;-74
2023/01/03 06:06:53;;;;;;;2.33;1.40;;;9.80;99.90;;;;;;5050670;28;20033;-74
2023/01/03 06:09:19;;;;;;;1.90;1.30;;;9.90;99.90;;;;;;5045594;28;20029;-74
2023/01/03 06:11:45;;;;;;;2.60;1.50;;;9.80;99.90;;;;;;5046039;28;20025;-74
2023/01/03 06:14:10;;;;;;;1.38;1.20;;;9.90;99.90;;;;;;5050250;28;20025;-74
2023/01/03 06:19:20;;;;;;;1.40;1.30;;;9.90;99.90;;;;;;5051119;28;20055;-74
2023/01/03 06:21:46;;;;;;;1.95;1.52;;;9.90;99.90;;;;;;5045622;28;20072;-74
2023/01/03 06:24:12;;;;;;;2.17;1.50;;;9.90;99.90;;;;;;5042556;28;20099;-74
2023/01/03 06:26:37;;;;;;;2.30;1.35;;;9.90;99.90;;;;;;5031981;28;20501;-74
2023/01/03 06:29:04;;;;;;;1.40;1.30;;;9.90;99.90;;;;;;5037398;28;20626;-74
2023/01/03 06:31:30;;;;;;;2.63;1.20;;;9.90;99.90;;;;;;5048855;28;20029;-74
2023/01/03 06:33:56;;;;;;;1.80;1.30;;;10.00;99.90;;;;;;5050771;28;20028;-74
2023/01/03 06:36:22;;;;;;;2.67;1.35;;;10.00;99.90;;;;;;5050301;28;20029;-74
2023/01/03 06:38:48;;;;;;;1.90;1.33;;;10.00;99.90;;;;;;5050802;28;20025;-74
2023/01/03 06:41:14;;;;;;;1.55;1.25;;;9.90;99.90;;;;;;5050246;28;20025;-74
2023/01/03 06:43:41;;;;;;;1.35;1.25;;;9.90;99.90;;;;;;5050353;28;20024;-74
2023/01/03 06:54:28;;;;;;;2.85;1.92;;;9.90;99.90;;;;;;5050820;28;20068;-74
2023/01/03 06:56:55;;;;;;;3.08;1.88;;;9.90;99.90;;;;;;5051783;28;20032;-74
2023/01/03 06:59:20;;;;;;;2.97;2.17;;;9.90;99.90;;;;;;5052655;28;20060;-74
2023/01/03 07:01:47;;;;;;;2.72;1.92;;;9.90;99.90;;;;;;5041153;28;20518;-74
2023/01/03 07:04:13;;;;;;;2.05;1.80;;;9.80;99.90;;;;;;5034391;28;20026;-74
2023/01/03 07:06:40;;;;;;;2.25;1.85;;;9.80;99.90;;;;;;5034023;28;20025;-73
2023/01/03 07:09:06;;;;;;;2.22;1.75;;;9.90;99.90;;;;;;5049468;28;20553;-73
2023/01/03 07:11:32;;;;;;;2.42;2.13;;;9.90;99.90;;;;;;5047205;28;20089;-74
2023/01/03 07:13:59;;;;;;;1.92;1.73;;;9.80;99.90;;;;;;5053904;28;20476;-74
2023/01/03 07:16:46;;;;;;;2.33;1.92;;;9.80;99.90;;;;;;5049445;28;20553;-73
2023/01/03 07:19:15;;;;;;;1.70;1.58;;;9.80;99.90;;;;;;5042227;28;20487;-77
2023/01/03 07:21:41;;;;;;;2.95;2.00;;;9.80;99.90;;;;;;5054160;28;20021;-73
2023/01/03 07:24:09;;;;;;;4.38;2.33;;;9.80;99.90;;;;;;5053935;28;20051;-74
2023/01/03 07:26:35;;;;;;;2.28;1.80;;;9.90;99.90;;;;;;5051874;28;20491;-74
2023/01/03 07:29:05;;;;;;;1.98;1.70;;;9.90;99.90;;;;;;5053188;28;20056;-74
2023/01/03 07:31:34;;;;;;;2.13;1.85;;;9.80;99.90;;;;;;5053756;28;20558;-73
2023/01/03 07:34:00;;;;;;;1.60;1.50;;;9.80;99.90;;;;;;5053242;28;20025;-74
2023/01/03 07:36:26;;;;;;;2.08;1.75;;;9.80;99.90;;;;;;5053423;28;20103;-74
2023/01/03 07:38:54;;;;;;;1.67;1.58;;;9.90;99.90;;;;;;5053082;28;20519;-74
2023/01/03 07:41:19;;;;;;;2.30;1.80;;;9.80;99.90;;;;;;5053408;28;20014;-74
2023/01/03 07:43:47;;;;;;;1.30;1.20;;;9.80;99.90;;;;;;5053437;28;20036;-75
2023/01/03 07:46:19;;;;;;;2.92;2.13;;;9.80;99.90;;;;;;5052020;28;20025;-74
2023/01/03 07:48:48;;;;;;;2.88;1.92;;;9.80;99.90;;;;;;5053323;28;20025;-74
2023/01/03 07:51:15;;;;;;;2.88;1.92;;;9.80;99.90;;;;;;5050580;28;20021;-74
2023/01/03 07:53:41;;;;;;;2.60;1.83;;;9.80;99.90;;;;;;5052681;28;20106;-74
2023/01/03 07:56:13;;;;;;;1.88;1.77;;;9.70;99.90;;;;;;5047463;28;20021;-76
2023/01/03 07:58:39;;;;;;;;;;;9.70;99.90;;;;;;5051592;28;20033;-73
2023/01/03 08:01:16;;;;;;;3.60;2.35;;;9.70;99.90;;;;;;5041099;28;19904;-77
2023/01/03 08:03:42;;;;;;;2.40;1.63;;;9.60;99.90;;;;;;5052843;28;20083;-73
2023/01/03 08:06:12;;;;;;;3.40;1.92;;;9.60;99.90;;;;;;5052892;28;20094;-74
2023/01/03 08:08:38;;;;;;;2.00;1.80;;;9.60;99.90;;;;;;5046643;28;20036;-74
2023/01/03 08:13:49;;;;;;;2.03;1.85;;;9.70;99.90;;;;;;5050533;28;20517;-73
2023/01/03 08:16:17;;;;;;;3.42;2.15;;;9.70;99.90;;;;;;5051072;28;20017;-75
2023/01/03 08:18:43;;;;;;;2.55;1.90;;;9.80;99.90;;;;;;5048706;28;20021;-74
2023/01/03 08:21:11;;;;;;;3.03;2.15;;;9.90;99.90;;;;;;5052012;28;20029;-74
2023/01/03 08:23:37;;;;;;;3.35;2.30;;;9.90;99.90;;;;;;5049520;28;20032;-73
2023/01/03 08:26:14;;;;;;;3.95;2.58;;;9.80;99.90;;;;;;5051578;28;20040;-74
2023/01/03 08:28:41;;;;;;;2.72;2.00;;;9.70;99.90;;;;;;5051916;28;20037;-74
2023/01/03 08:31:21;;;;;;;3.13;2.22;;;9.80;99.90;;;;;;5048474;28;20025;-77
2023/01/03 08:33:52;;;;;;;4.55;2.10;;;9.90;99.90;;;;;;5047470;28;20029;-74
2023/01/03 08:36:19;;;;;;;2.90;2.17;;;9.90;99.90;;;;;;5048017;28;20119;-75
2023/01/03 08:38:51;;;;;;;2.55;2.10;;;9.90;99.90;;;;;;5047794;28;20127;-75
2023/01/03 08:41:21;;;;;;;2.50;2.20;;;9.90;99.90;;;;;;5048368;28;20021;-74
2023/01/03 08:43:48;;;;;;;3.05;2.53;;;9.90;99.90;;;;;;5047022;28;20032;-77
2023/01/03 08:46:15;;;;;;;3.63;2.58;;;9.90;99.90;;;;;;5049613;28;20091;-75
2023/01/03 08:48:42;;;;;;;4.05;2.63;;;10.00;99.90;;;;;;5039019;28;20025;-74
2023/01/03 08:51:08;;;;;;;3.42;2.30;;;10.00;99.90;;;;;;5045658;28;20527;-76
2023/01/03 08:53:33;;;;;;;4.03;2.50;;;10.00;99.90;;;;;;5049255;28;20105;-74
2023/01/03 08:55:59;;;;;;;3.95;2.72;;;10.00;99.90;;;;;;5047199;28;20036;-74
2023/01/03 08:58:25;;;;;;;3.15;2.30;;;10.10;99.90;;;;;;5050754;28;20021;-74
2023/01/03 09:00:51;;;;;;;3.63;2.22;;;10.10;99.90;;;;;;5050970;28;20029;-77
2023/01/03 09:03:17;;;;;;;3.90;2.60;;;10.20;99.90;;;;;;5050689;28;20021;-74
2023/01/03 09:05:43;;;;;;;3.42;2.35;;;10.20;99.90;;;;;;5048409;28;20032;-77
2023/01/03 09:08:09;;;;;;;3.50;2.65;;;10.30;99.90;;;;;;5046716;28;20029;-74
2023/01/03 09:10:35;;;;;;;2.85;2.30;;;10.30;99.90;;;;;;5049925;28;20523;-77
2023/01/03 09:13:03;;;;;;;4.32;3.00;;;10.40;99.90;;;;;;5050511;28;20025;-74
2023/01/03 09:15:29;;;;;;;3.40;2.47;;;10.40;99.90;;;;;;5036719;28;20033;-74
2023/01/03 09:17:54;;;;;;;5.50;2.92;;;10.40;99.90;;;;;;5050766;28;20033;-74
2023/01/03 09:20:20;;;;;;;3.58;2.40;;;10.40;99.90;;;;;;5043393;28;20075;-77
2023/01/03 09:22:46;;;;;;;3.25;2.63;;;10.50;99.90;;;;;;5043572;28;20025;-74
2023/01/03 09:25:14;;;;;;;3.90;2.67;;;10.50;99.90;;;;;;5048594;28;20049;-74
2023/01/03 09:27:44;;;;;;;3.08;2.10;;;10.60;99.90;;;;;;5049750;28;20482;-77
2023/01/03 09:30:10;;;;;;;4.53;2.40;;;10.70;99.90;;;;;;5048102;28;20541;-74
2023/01/03 09:32:35;;;;;;;5.00;2.40;;;10.70;99.90;;;;;;5046913;28;20503;-74
2023/01/03 09:35:01;;;;;;;4.18;2.53;;;10.60;99.90;;;;;;5049814;28;20079;-77
2023/01/03 09:37:27;;;;;;;5.70;2.47;;;10.70;99.90;;;;;;5050491;28;20029;-77
2023/01/03 09:39:52;;;;;;;5.30;2.25;;;10.70;99.90;;;;;;5050155;28;20448;-74
2023/01/03 09:45:11;;;;;;;3.90;2.35;;;10.90;99.90;;;;;;5049974;28;20525;-75
2023/01/03 09:47:38;;;;;;;4.35;2.83;;;10.90;99.90;;;;;;5050345;28;20029;-74
2023/01/03 09:50:08;;;;;;;3.42;2.78;;;11.10;99.90;;;;;;5049904;28;20024;-74
2023/01/03 10:04:34;;;;;;;4.18;2.97;;;11.30;99.90;;;;;;5030419;28;20052;-77
2023/01/03 10:07:27;;;;;;;3.88;2.90;;;11.20;99.90;;;;;;5044846;28;20029;-76
2023/01/03 10:10:13;;;;;;;3.50;3.08;;;11.00;99.90;;;;;;5049702;28;20526;-76
2023/01/03 10:12:52;;;;;;;5.72;3.13;;;11.10;99.90;;;;;;5048987;28;20029;-77
2023/01/03 10:15:31;;;;;;;4.88;2.83;;;11.10;99.90;;;;;;5047005;28;20043;-76
2023/01/03 10:18:15;;;;;;;4.10;2.72;;;11.20;99.90;;;;;;5047143;28;20024;-77
2023/01/03 10:21:03;;;;;;;3.80;2.63;;;11.40;99.90;;;;;;5038522;28;20029;-77
2023/01/03 10:23:33;;;;;;;3.92;2.38;;;11.50;99.90;;;;;;5048460;28;20525;-77
2023/01/03 10:25:59;;;;;;;4.57;3.33;;;11.70;99.90;;;;;;5048819;28;20036;-77
2023/01/03 10:28:30;;;;;;;3.85;2.50;;;11.90;99.90;;;;;;5042153;28;20029;-77
2023/01/03 10:31:30;;;;;;;8.50;3.53;;;12.10;99.90;;;;;;5029700;28;20031;-77
2023/01/03 10:33:56;;;;;;;5.97;3.47;;;12.00;99.90;;;;;;5037218;28;20044;-76
2023/01/03 10:36:22;;;;;;;5.63;2.97;;;12.10;99.90;;;;;;5046552;28;20260;-77
2023/01/03 10:38:47;;;;;;;5.32;3.40;;;12.30;99.90;;;;;;5045601;28;20449;-77
2023/01/03 10:41:29;;;;;;;6.40;3.30;;;12.70;99.90;;;;;;5046649;28;20022;-77
2023/01/03 10:43:59;;;;;;;6.88;3.28;;;12.80;99.90;;;;;;5027455;28;20048;-77
2023/01/03 10:46:26;;;;;;;4.57;3.40;;;12.80;99.90;;;;;;5046011;28;20036;-77
2023/01/03 10:48:54;;;;;;;4.90;2.75;;;12.80;99.90;;;;;;5046623;28;20108;-75
2023/01/03 10:51:32;;;;;;;3.58;2.50;;;12.50;99.90;;;;;;5026539;28;20041;-75
2023/01/03 10:53:59;;;;;;;3.60;2.88;;;12.50;99.90;;;;;;5037666;28;20260;-75
2023/01/03 10:56:28;;;;;;;2.75;2.28;;;12.40;99.90;;;;;;5046610;28;20060;-75
2023/01/03 10:59:21;;;;;;;2.58;1.88;;;12.40;99.90;;;;;;5029372;28;20499;-74
2023/01/03 11:01:59;;;;;;;3.30;2.30;;;12.40;99.90;;;;;;5033920;28;20024;-77
2023/01/03 11:04:25;;;;;;;2.13;1.90;;;12.40;99.90;;;;;;5043967;28;20045;-77
2023/01/03 11:06:59;;;;;;;2.92;2.03;;;12.40;99.90;;;;;;5050304;28;20494;-77
2023/01/03 11:09:42;;;;;;;2.10;1.90;;;12.40;99.90;;;;;;5047963;28;20056;-74
2023/01/03 11:12:22;;;;;;;2.80;2.10;;;12.40;99.90;;;;;;5048603;28;20052;-77
2023/01/03 11:14:54;;;;;;;1.60;1.50;;;12.30;99.90;;;;;;5048846;28;20091;-74
2023/01/03 11:17:22;;;;;;;1.80;1.45;;;12.30;99.90;;;;;;5044260;28;20148;-77
2023/01/03 11:19:49;;;;;;;2.08;1.70;;;12.30;99.90;;;;;;5041379;28;20036;-77
2023/01/03 11:22:31;;;;;;;1.80;1.30;;;12.30;99.90;;;;;;5044136;28;20036;-77
2023/01/03 11:25:10;;;;;;;2.00;1.77;;;12.20;99.90;;;;;;5045014;28;20036;-75
2023/01/03 11:27:54;;;;;;;1.58;1.40;;;12.20;99.90;;;;;;5048328;28;20021;-76
2023/01/03 11:30:36;;;;;;;1.80;1.67;;;12.30;99.90;;;;;;5048904;28;20037;-75
2023/01/03 11:33:29;;;;;;;2.45;1.65;;;12.40;99.90;;;;;;5048920;28;20044;-75
2023/01/03 11:36:19;;;;;;;2.65;1.70;;;12.40;99.90;;;;;;5046357;28;20056;-76
2023/01/03 11:39:10;;;;;;;2.35;1.88;;;12.40;99.90;;;;;;5037888;28;20509;-76
2023/01/03 11:41:57;;;;;;;3.80;1.67;;;12.40;99.90;;;;;;5047602;28;20367;-75
2023/01/03 11:44:34;;;;;;;1.92;1.60;;;12.50;99.90;;;;;;5039013;28;20116;-75
2023/01/03 11:47:03;;;;;;;3.83;1.38;;;12.50;99.90;;;;;;5052321;28;20131;-76
2023/01/03 11:49:46;;;;;;;1.58;1.38;;;12.50;99.90;;;;;;5046719;28;20499;-76
2023/01/03 11:52:21;;;;;;;3.15;1.48;;;12.60;99.90;;;;;;5043268;28;20076;-76
2023/01/03 11:55:14;;;;;;;1.40;1.30;;;12.50;99.90;;;;;;5051457;28;20033;-76
2023/01/03 11:57:49;;;;;;;2.53;1.40;;;12.60;99.90;;;;;;5052115;28;20021;-76
2023/01/03 12:00:32;;;;;;;1.70;1.42;;;12.60;99.90;;;;;;5051378;28;20032;-76
2023/01/03 12:03:23;;;;;;;4.72;2.15;;;12.50;99.90;;;;;;5037224;28;20130;-75
2023/01/03 12:06:09;;;;;;;4.07;2.10;;;12.40;99.90;;;;;;5051629;28;20037;-76
2023/01/03 12:08:53;;;;;;;2.10;1.70;;;12.40;99.90;;;;;;5052698;28;20071;-75
2023/01/03 12:11:33;;;;;;;3.50;2.08;;;12.40;99.90;;;;;;5052050;28;20078;-76
2023/01/03 12:14:02;;;;;;;2.97;2.43;;;12.40;99.90;;;;;;5052063;28;20061;-75
2023/01/03 12:16:37;;;;;;;5.22;2.50;;;12.40;99.90;;;;;;5047950;28;20021;-76
2023/01/03 12:19:12;;;;;;;5.55;3.00;;;12.50;99.90;;;;;;5051772;28;20033;-75
2023/01/03 12:21:42;;;;;;;3.78;2.47;;;12.40;99.90;;;;;;5052038;28;20021;-76
2023/01/03 12:24:39;;;;;;;3.05;2.17;;;12.50;99.90;;;;;;5052250;28;20032;-76
2023/01/03 12:27:28;;;;;;;3.80;2.03;;;12.60;99.90;;;;;;5046839;28;20025;-75
2023/01/03 12:29:57;;;;;;;2.08;1.88;;;12.60;99.90;;;;;;5049083;28;20045;-75
2023/01/03 12:32:38;;;;;;;2.55;1.88;;;12.70;99.90;;;;;;5051965;28;20025;-76
2023/01/03 12:35:26;;;;;;;3.10;1.70;;;12.60;99.90;;;;;;5051947;28;20082;-75
2023/01/03 12:37:55;;;;;;;2.58;1.80;;;12.70;99.90;;;;;;5051812;28;20021;-76
2023/01/03 12:40:49;;;;;;;2.60;1.52;;;12.70;99.90;;;;;;5051540;28;20055;-76
2023/01/03 12:43:32;;;;;;;4.97;1.92;;;12.60;99.90;;;;;;5038586;28;20031;-75
2023/01/03 12:46:06;;;;;;;7.65;2.28;;;13.00;99.90;;;;;;5051580;28;20044;-76
2023/01/03 12:48:53;;;;;;;3.15;2.00;;;13.20;99.90;;;;;;5051688;28;20032;-76
2023/01/03 12:51:21;;;;;;;1.98;1.80;;;13.30;99.90;;;;;;5054576;28;20028;-75
2023/01/03 12:54:09;;;;;;;2.42;1.90;;;13.30;99.90;;;;;;5051625;28;20040;-76
2023/01/03 12:57:05;;;;;;;3.50;1.83;;;13.50;99.90;;;;;;5050988;28;20052;-76
2023/01/03 12:59:49;;;;;;;7.55;2.25;;;13.50;99.90;;;;;;5032608;28;20557;-76
2023/01/03 13:03:09;;;;;;;2.70;1.88;;;13.70;99.90;;;;;;5046893;28;20549;-75
2023/01/03 13:05:53;;;;;;;5.90;2.25;;;13.20;99.90;;;;;;4997144;28;20120;-76
2023/01/03 13:08:43;;;;;;;3.25;1.80;;;13.00;99.90;;;;;;5006582;28;20065;-75
2023/01/03 13:11:22;;;;;;;3.47;1.20;;;12.80;99.90;;;;;;5008710;28;20065;-76
2023/01/03 13:13:53;;;;;;;1.95;1.30;;;12.70;99.90;;;;;;5008659;28;20050;-75
2023/01/03 13:16:40;;;;;;;3.15;1.42;;;12.50;99.90;;;;;;5007828;28;20029;-75
2023/01/03 13:19:21;;;;;;;3.72;1.67;;;12.30;99.90;;;;;;4997528;28;20034;-76
2023/01/03 13:21:53;;;;;;;3.92;1.95;;;12.30;99.90;;;;;;5005159;28;20053;-77
2023/01/03 13:24:43;;;;;;;3.28;1.30;;;12.30;99.90;;;;;;5001109;28;20104;-76
2023/01/03 13:27:34;;;;;;;2.15;1.50;;;12.40;99.90;;;;;;5008290;28;20123;-76
2023/01/03 13:29:59;;;;;;;3.40;1.30;;;12.50;99.90;;;;;;4984051;28;20597;-75
2023/01/03 13:32:29;;;;;;;3.47;1.50;;;12.60;99.90;;;;;;5008638;28;20045;-76
2023/01/03 13:34:58;;;;;;;2.72;1.50;;;12.50;99.90;;;;;;4991484;28;20161;-76
2023/01/03 13:37:24;;;;;;;1.60;1.25;;;12.40;99.90;;;;;;5004786;28;20080;-76
2023/01/03 13:39:50;;;;;;;2.97;1.50;;;12.50;99.90;;;;;;5020419;28;20060;-76
2023/01/03 13:42:33;;;;;;;2.78;1.20;;;12.50;99.90;;;;;;5048526;28;20416;-76
2023/01/03 13:45:14;;;;;;;1.00;0.90;;;12.50;99.90;;;;;;5041413;28;20029;-76
2023/01/03 13:47:46;;;;;;;3.35;1.17;;;12.70;99.90;;;;;;5032565;28;20033;-76
2023/01/03 13:50:26;;;;;;;2.42;1.38;;;12.60;99.90;;;;;;5029452;28;20052;-76
2023/01/03 13:53:03;;;;;;;3.47;1.20;;;12.50;99.90;;;;;;5036868;28;20098;-77
2023/01/03 13:55:38;;;;;;;1.65;1.13;;;12.40;99.90;;;;;;5049864;28;20440;-75
2023/01/03 13:58:33;;;;;;;2.63;1.10;;;12.70;99.90;;;;;;5038246;28;20040;-76
2023/01/03 14:01:04;;;;;;;1.52;1.27;;;12.80;99.90;;;;;;5042132;28;20022;-75
2023/01/03 14:03:49;;;;;;;1.92;1.23;;;12.90;99.90;;;;;;5030200;28;20017;-76
2023/01/03 14:06:33;;;;;;;2.50;1.50;;;12.70;99.90;;;;;;5036847;28;20304;-76
2023/01/03 14:09:20;;;;;;;2.50;1.00;;;12.60;99.90;;;;;;5046961;28;20029;-76
2023/01/03 14:12:06;;;;;;;2.55;1.20;;;12.80;99.90;;;;;;5033760;28;20076;-77
2023/01/03 14:14:39;;;;;;;2.58;1.30;;;13.10;99.90;;;;;;5030096;28;20075;-75
2023/01/03 14:17:16;;;;;;;3.05;1.77;;;13.00;99.90;;;;;;5030220;28;20023;-75
2023/01/03 14:19:52;;;;;;;5.70;1.40;;;12.90;99.90;;;;;;5041164;28;20037;-75
2023/01/03 14:22:21;;;;;;;4.18;1.95;;;12.90;99.90;;;;;;5050409;28;20032;-75